sensor_id;sensor_type;location;lat;lon;timestamp;pressure;altitude;pressure_sealevel;temperature;humidity
6150;BME280;3106;42.670;23.318;2023-01-25T00:01:03;95493.78;;;2.53;100.00
6150;BME280;3106;42.670;23.318;2023-01-25T00:03:48;95496.41;;;2.53;100.00
6150;BME280;3106;42.670;23.318;2023-01-25T00:06:25;95504.88;;;2.50;100.00
6150;BME280;3106;42.670;23.318;2023-01-25T00:08:53;95508.31;;;2.51;100.00
6150;BME280;3106;42.670;23.318;2023-01-25T00:11:29;95506.75;;;2.45;100.00
6150;BME280;3106;42.670;23.318;2023-01-25T00:14:10;95511.47;;;2.48;100.00
6150;BME280;3106;42.670;23.318;2023-01-25T00:16:40;95485.09;;;2.33;100.00
6150;BME280;3106;42.670;23.318;2023-01-25T00:19:22;95494.06;;;2.42;100.00
6150;BME280;3106;42.670;23.318;2023-01-25T00:21:52;95492.50;;;2.41;100.00
6150;BME280;3106;42.670;23.318;2023-01-25T00:24:19;95505.69;;;2.46;100.00
6150;BME280;3106;42.670;23.318;2023-01-25T00:26:51;95500.13;;;2.42;100.00
6150;BME280;3106;42.670;23.318;2023-01-25T00:29:18;95508.31;;;2.46;100.00
6150;BME280;3106;42.670;23.318;2023-01-25T00:31:53;95496.19;;;2.45;100.00
6150;BME280;3106;42.670;23.318;2023-01-25T00:34:44;95505.16;;;2.44;100.00
6150;BME280;3106;42.670;23.318;2023-01-25T00:37:28;95489.56;;;2.42;100.00
6150;BME280;3106;42.670;23.318;2023-01-25T00:39:58;95498.00;;;2.44;100.00
6150;BME280;3106;42.670;23.318;2023-01-25T00:42:26;95503.03;;;2.36;100.00
6150;BME280;3106;42.670;23.318;2023-01-25T00:44:53;95496.97;;;2.30;100.00
6150;BME280;3106;42.670;23.318;2023-01-25T00:47:19;95503.56;;;2.28;100.00
6150;BME280;3106;42.670;23.318;2023-01-25T00:49:46;95465.84;;;2.12;100.00
6150;BME280;3106;42.670;23.318;2023-01-25T00:52:13;95495.09;;;2.36;100.00
6150;BME280;3106;42.670;23.318;2023-01-25T00:54:42;95501.44;;;2.35;100.00
6150;BME280;3106;42.670;23.318;2023-01-25T00:57:09;95504.34;;;2.33;100.00
6150;BME280;3106;42.670;23.318;2023-01-25T00:59:37;95506.75;;;2.40;100.00
6150;BME280;3106;42.670;23.318;2023-01-25T01:02:09;95499.88;;;2.44;100.00
6150;BME280;3106;42.670;23.318;2023-01-25T01:04:35;95501.97;;;2.47;100.00
6150;BME280;3106;42.670;23.318;2023-01-25T01:07:03;95476.13;;;2.34;100.00
6150;BME280;3106;42.670;23.318;2023-01-25T01:09:29;95491.13;;;2.53;100.00
6150;BME280;3106;42.670;23.318;2023-01-25T01:11:56;95503.56;;;2.53;100.00
6150;BME280;3106;42.670;23.318;2023-01-25T01:14:23;95496.41;;;2.53;100.00
6150;BME280;3106;42.670;23.318;2023-01-25T01:16:51;95502.50;;;2.49;100.00
6150;BME280;3106;42.670;23.318;2023-01-25T01:19:18;95503.03;;;2.51;100.00
6150;BME280;3106;42.670;23.318;2023-01-25T01:21:45;95496.72;;;2.42;100.00
6150;BME280;3106;42.670;23.318;2023-01-25T01:24:12;95488.78;;;2.42;100.00
6150;BME280;3106;42.670;23.318;2023-01-25T01:26:38;95480.06;;;2.46;100.00
6150;BME280;3106;42.670;23.318;2023-01-25T01:29:05;95488.25;;;2.45;100.00
6150;BME280;3106;42.670;23.318;2023-01-25T01:31:32;95487.97;;;2.46;100.00
6150;BME280;3106;42.670;23.318;2023-01-25T01:34:00;95481.41;;;2.44;100.00
6150;BME280;3106;42.670;23.318;2023-01-25T01:36:29;95483.50;;;2.37;100.00
6150;BME280;3106;42.670;23.318;2023-01-25T01:38:57;95486.13;;;2.37;100.00
6150;BME280;3106;42.670;23.318;2023-01-25T01:41:24;95477.69;;;2.35;100.00
6150;BME280;3106;42.670;23.318;2023-01-25T01:43:51;95481.91;;;2.36;100.00
6150;BME280;3106;42.670;23.318;2023-01-25T01:46:25;95478.22;;;2.37;100.00
6150;BME280;3106;42.670;23.318;2023-01-25T01:48:55;95465.84;;;2.37;100.00
6150;BME280;3106;42.670;23.318;2023-01-25T01:51:30;95471.91;;;2.38;100.00
6150;BME280;3106;42.670;23.318;2023-01-25T01:54:07;95469.53;;;2.36;100.00
6150;BME280;3106;42.670;23.318;2023-01-25T01:56:39;95470.31;;;2.37;100.00
6150;BME280;3106;42.670;23.318;2023-01-25T01:59:09;95476.91;;;2.44;100.00
6150;BME280;3106;42.670;23.318;2023-01-25T02:01:38;95472.16;;;2.41;100.00
6150;BME280;3106;42.670;23.318;2023-01-25T02:04:07;95469.50;;;2.46;100.00
6150;BME280;3106;42.670;23.318;2023-01-25T02:06:40;95468.75;;;2.46;100.00
6150;BME280;3106;42.670;23.318;2023-01-25T02:09:10;95467.69;;;2.42;100.00
6150;BME280;3106;42.670;23.318;2023-01-25T02:11:39;95470.06;;;2.38;100.00
6150;BME280;3106;42.670;23.318;2023-01-25T02:14:06;95471.91;;;2.48;100.00
6150;BME280;3106;42.670;23.318;2023-01-25T02:16:35;95462.94;;;2.44;100.00
6150;BME280;3106;42.670;23.318;2023-01-25T02:19:02;95478.47;;;2.45;100.00
6150;BME280;3106;42.670;23.318;2023-01-25T02:21:36;95468.75;;;2.46;100.00
6150;BME280;3106;42.670;23.318;2023-01-25T02:24:08;95472.97;;;2.47;100.00
6150;BME280;3106;42.670;23.318;2023-01-25T02:26:38;95475.84;;;2.50;100.00
6150;BME280;3106;42.670;23.318;2023-01-25T02:29:07;95470.56;;;2.55;100.00
6150;BME280;3106;42.670;23.318;2023-01-25T02:34:09;95465.56;;;2.44;100.00
6150;BME280;3106;42.670;23.318;2023-01-25T02:39:13;95437.34;;;2.34;100.00
6150;BME280;3106;42.670;23.318;2023-01-25T02:41:46;95464.75;;;2.53;100.00
6150;BME280;3106;42.670;23.318;2023-01-25T02:44:15;95462.66;;;2.55;100.00
6150;BME280;3106;42.670;23.318;2023-01-25T02:46:43;95421.50;;;2.34;100.00
6150;BME280;3106;42.670;23.318;2023-01-25T02:49:11;95460.25;;;2.59;100.00
6150;BME280;3106;42.670;23.318;2023-01-25T02:51:40;95439.97;;;2.44;100.00
6150;BME280;3106;42.670;23.318;2023-01-25T02:59:20;95465.03;;;2.47;100.00
6150;BME280;3106;42.670;23.318;2023-01-25T03:01:47;95465.28;;;2.45;100.00
6150;BME280;3106;42.670;23.318;2023-01-25T03:04:14;95464.53;;;2.45;100.00
6150;BME280;3106;42.670;23.318;2023-01-25T03:06:45;95459.25;;;2.40;100.00
6150;BME280;3106;42.670;23.318;2023-01-25T03:09:11;95466.63;;;2.43;100.00
6150;BME280;3106;42.670;23.318;2023-01-25T03:11:38;95464.00;;;2.43;100.00
6150;BME280;3106;42.670;23.318;2023-01-25T03:14:05;95471.09;;;2.47;100.00
6150;BME280;3106;42.670;23.318;2023-01-25T03:16:33;95469.53;;;2.36;100.00
6150;BME280;3106;42.670;23.318;2023-01-25T03:19:00;95464.00;;;2.38;100.00
6150;BME280;3106;42.670;23.318;2023-01-25T03:21:27;95436.84;;;2.22;100.00
6150;BME280;3106;42.670;23.318;2023-01-25T03:23:58;95467.69;;;2.42;100.00
6150;BME280;3106;42.670;23.318;2023-01-25T03:26:27;95463.72;;;2.39;100.00
6150;BME280;3106;42.670;23.318;2023-01-25T03:28:54;95459.75;;;2.37;100.00
6150;BME280;3106;42.670;23.318;2023-01-25T03:31:21;95461.63;;;2.21;100.00
6150;BME280;3106;42.670;23.318;2023-01-25T03:33:51;95467.69;;;2.17;100.00
6150;BME280;3106;42.670;23.318;2023-01-25T03:36:18;95475.34;;;2.23;100.00
6150;BME280;3106;42.670;23.318;2023-01-25T03:38:47;95471.91;;;2.23;100.00
6150;BME280;3106;42.670;23.318;2023-01-25T03:41:17;95449.75;;;2.14;100.00
6150;BME280;3106;42.670;23.318;2023-01-25T03:43:43;95466.38;;;2.19;100.00
6150;BME280;3106;42.670;23.318;2023-01-25T03:46:10;95467.94;;;2.15;100.00
6150;BME280;3106;42.670;23.318;2023-01-25T03:48:37;95450.28;;;2.11;100.00
6150;BME280;3106;42.670;23.318;2023-01-25T03:51:05;95429.19;;;2.06;100.00
6150;BME280;3106;42.670;23.318;2023-01-25T03:53:32;95452.66;;;2.27;100.00
6150;BME280;3106;42.670;23.318;2023-01-25T03:56:00;95418.66;;;2.11;100.00
6150;BME280;3106;42.670;23.318;2023-01-25T03:58:28;95450.53;;;2.34;100.00
6150;BME280;3106;42.670;23.318;2023-01-25T04:00:57;95450.78;;;2.33;100.00
6150;BME280;3106;42.670;23.318;2023-01-25T04:03:25;95453.16;;;2.39;100.00
6150;BME280;3106;42.670;23.318;2023-01-25T04:05:53;95448.41;;;2.41;100.00
6150;BME280;3106;42.670;23.318;2023-01-25T04:08:22;95429.69;;;2.38;100.00
6150;BME280;3106;42.670;23.318;2023-01-25T04:10:53;95439.72;;;2.41;100.00
6150;BME280;3106;42.670;23.318;2023-01-25T04:13:21;95446.31;;;2.38;100.00
6150;BME280;3106;42.670;23.318;2023-01-25T04:15:49;95447.88;;;2.39;100.00
6150;BME280;3106;42.670;23.318;2023-01-25T04:18:16;95449.22;;;2.42;100.00
6150;BME280;3106;42.670;23.318;2023-01-25T04:20:43;95450.25;;;2.31;100.00
6150;BME280;3106;42.670;23.318;2023-01-25T04:23:11;95434.72;;;2.24;100.00
6150;BME280;3106;42.670;23.318;2023-01-25T04:25:39;95437.63;;;2.23;100.00
6150;BME280;3106;42.670;23.318;2023-01-25T04:28:06;95443.41;;;2.25;100.00
6150;BME280;3106;42.670;23.318;2023-01-25T04:30:33;95438.41;;;2.28;100.00
6150;BME280;3106;42.670;23.318;2023-01-25T04:33:03;95443.16;;;2.31;100.00
6150;BME280;3106;42.670;23.318;2023-01-25T04:35:31;95445.53;;;2.38;100.00
6150;BME280;3106;42.670;23.318;2023-01-25T04:37:58;95455.03;;;2.39;100.00
6150;BME280;3106;42.670;23.318;2023-01-25T04:40:26;95461.88;;;2.35;100.00
6150;BME280;3106;42.670;23.318;2023-01-25T04:42:54;95463.19;;;2.32;100.00
6150;BME280;3106;42.670;23.318;2023-01-25T04:45:22;95458.47;;;2.29;100.00
6150;BME280;3106;42.670;23.318;2023-01-25T04:47:54;95463.97;;;2.33;100.00
6150;BME280;3106;42.670;23.318;2023-01-25T04:50:22;95461.34;;;2.33;100.00
6150;BME280;3106;42.670;23.318;2023-01-25T04:52:49;95456.88;;;2.33;100.00
6150;BME280;3106;42.670;23.318;2023-01-25T04:55:18;95455.28;;;2.37;100.00
6150;BME280;3106;42.670;23.318;2023-01-25T05:01:12;95464.50;;;2.35;100.00
6150;BME280;3106;42.670;23.318;2023-01-25T05:03:45;95454.50;;;2.27;100.00
6150;BME280;3106;42.670;23.318;2023-01-25T05:06:12;95460.56;;;2.27;100.00
6150;BME280;3106;42.670;23.318;2023-01-25T05:08:39;95455.56;;;2.21;100.00
6150;BME280;3106;42.670;23.318;2023-01-25T05:11:06;95461.91;;;2.15;100.00
6150;BME280;3106;42.670;23.318;2023-01-25T05:13:32;95447.91;;;2.04;100.00
6150;BME280;3106;42.670;23.318;2023-01-25T05:15:59;95456.09;;;2.08;100.00
6150;BME280;3106;42.670;23.318;2023-01-25T05:18:29;95443.16;;;2.06;100.00
6150;BME280;3106;42.670;23.318;2023-01-25T05:20:56;95451.06;;;2.11;100.00
6150;BME280;3106;42.670;23.318;2023-01-25T05:23:23;95424.97;;;1.95;100.00
6150;BME280;3106;42.670;23.318;2023-01-25T05:25:51;95395.44;;;1.78;100.00
6150;BME280;3106;42.670;23.318;2023-01-25T05:28:35;95408.09;;;1.91;100.00
6150;BME280;3106;42.670;23.318;2023-01-25T05:31:02;95407.84;;;1.97;100.00
6150;BME280;3106;42.670;23.318;2023-01-25T05:33:32;95432.63;;;2.01;100.00
6150;BME280;3106;42.670;23.318;2023-01-25T05:35:59;95430.78;;;2.02;100.00
6150;BME280;3106;42.670;23.318;2023-01-25T05:38:28;95424.19;;;1.99;100.00
6150;BME280;3106;42.670;23.318;2023-01-25T05:40:59;95433.16;;;2.03;100.00
6150;BME280;3106;42.670;23.318;2023-01-25T05:43:26;95393.63;;;1.83;100.00
6150;BME280;3106;42.670;23.318;2023-01-25T05:45:53;95433.94;;;2.14;100.00
6150;BME280;3106;42.670;23.318;2023-01-25T05:48:20;95438.41;;;2.18;100.00
6150;BME280;3106;42.670;23.318;2023-01-25T05:50:48;95467.13;;;2.35;100.00
6150;BME280;3106;42.670;23.318;2023-01-25T05:53:15;95441.59;;;2.20;100.00
6150;BME280;3106;42.670;23.318;2023-01-25T05:55:42;95431.03;;;2.15;100.00
6150;BME280;3106;42.670;23.318;2023-01-25T05:58:09;95440.78;;;2.15;100.00
6150;BME280;3106;42.670;23.318;2023-01-25T06:00:36;95389.66;;;1.86;100.00
6150;BME280;3106;42.670;23.318;2023-01-25T06:03:03;95462.41;;;2.22;100.00
6150;BME280;3106;42.670;23.318;2023-01-25T06:05:31;95424.72;;;1.96;100.00
6150;BME280;3106;42.670;23.318;2023-01-25T06:08:00;95383.31;;;1.72;100.00
6150;BME280;3106;42.670;23.318;2023-01-25T06:10:27;95412.06;;;1.98;100.00
6150;BME280;3106;42.670;23.318;2023-01-25T06:12:56;95429.72;;;2.18;100.00
6150;BME280;3106;42.670;23.318;2023-01-25T06:15:25;95449.22;;;2.27;100.00
6150;BME280;3106;42.670;23.318;2023-01-25T06:17:53;95403.09;;;1.89;100.00
6150;BME280;3106;42.670;23.318;2023-01-25T06:20:20;95399.94;;;1.87;100.00
6150;BME280;3106;42.670;23.318;2023-01-25T06:22:48;95459.25;;;2.20;100.00
6150;BME280;3106;42.670;23.318;2023-01-25T06:25:17;95475.06;;;2.35;100.00
6150;BME280;3106;42.670;23.318;2023-01-25T06:27:44;95461.88;;;2.20;100.00
6150;BME280;3106;42.670;23.318;2023-01-25T06:30:12;95471.91;;;2.38;100.00
6150;BME280;3106;42.670;23.318;2023-01-25T06:32:39;95468.22;;;2.39;100.00
6150;BME280;3106;42.670;23.318;2023-01-25T06:35:06;95463.19;;;2.37;100.00
6150;BME280;3106;42.670;23.318;2023-01-25T06:37:33;95465.31;;;2.35;100.00
6150;BME280;3106;42.670;23.318;2023-01-25T06:40:04;95439.72;;;2.31;100.00
6150;BME280;3106;42.670;23.318;2023-01-25T06:42:32;95475.84;;;2.45;100.00
6150;BME280;3106;42.670;23.318;2023-01-25T06:44:59;95467.41;;;2.43;100.00
6150;BME280;3106;42.670;23.318;2023-01-25T06:47:26;95462.41;;;2.47;100.00
6150;BME280;3106;42.670;23.318;2023-01-25T06:49:53;95459.25;;;2.40;100.00
6150;BME280;3106;42.670;23.318;2023-01-25T06:52:19;95460.31;;;2.39;100.00
6150;BME280;3106;42.670;23.318;2023-01-25T06:54:47;95467.41;;;2.38;100.00
6150;BME280;3106;42.670;23.318;2023-01-25T06:57:14;95474.78;;;2.41;100.00
6150;BME280;3106;42.670;23.318;2023-01-25T06:59:42;95410.75;;;2.06;100.00
6150;BME280;3106;42.670;23.318;2023-01-25T07:02:13;95457.13;;;2.42;100.00
6150;BME280;3106;42.670;23.318;2023-01-25T07:04:43;95462.66;;;2.35;100.00
6150;BME280;3106;42.670;23.318;2023-01-25T07:07:10;95462.16;;;2.33;100.00
6150;BME280;3106;42.670;23.318;2023-01-25T07:09:37;95464.50;;;2.30;100.00
6150;BME280;3106;42.670;23.318;2023-01-25T07:12:05;95440.53;;;2.21;100.00
6150;BME280;3106;42.670;23.318;2023-01-25T07:14:32;95460.56;;;2.37;100.00
6150;BME280;3106;42.670;23.318;2023-01-25T07:17:00;95462.13;;;2.38;100.00
6150;BME280;3106;42.670;23.318;2023-01-25T07:19:27;95460.81;;;2.36;100.00
6150;BME280;3106;42.670;23.318;2023-01-25T07:27:08;95457.41;;;2.20;100.00
6150;BME280;3106;42.670;23.318;2023-01-25T07:29:38;95475.88;;;2.35;100.00
6150;BME280;3106;42.670;23.318;2023-01-25T07:32:11;95469.28;;;2.43;100.00
6150;BME280;3106;42.670;23.318;2023-01-25T07:34:38;95481.41;;;2.44;100.00
6150;BME280;3106;42.670;23.318;2023-01-25T07:37:05;95471.91;;;2.48;100.00
6150;BME280;3106;42.670;23.318;2023-01-25T07:39:37;95474.78;;;2.51;100.00
6150;BME280;3106;42.670;23.318;2023-01-25T07:42:12;95475.84;;;2.50;100.00
6150;BME280;3106;42.670;23.318;2023-01-25T07:44:40;95486.41;;;2.50;100.00
6150;BME280;3106;42.670;23.318;2023-01-25T07:47:06;95481.91;;;2.51;100.00
6150;BME280;3106;42.670;23.318;2023-01-25T07:49:35;95401.25;;;2.10;100.00
6150;BME280;3106;42.670;23.318;2023-01-25T07:52:02;95478.22;;;2.57;100.00
6150;BME280;3106;42.670;23.318;2023-01-25T07:54:32;95486.41;;;2.55;100.00
6150;BME280;3106;42.670;23.318;2023-01-25T07:56:59;95479.53;;;2.49;100.00
6150;BME280;3106;42.670;23.318;2023-01-25T07:59:26;95475.84;;;2.55;100.00
6150;BME280;3106;42.670;23.318;2023-01-25T08:01:55;95471.34;;;2.56;100.00
6150;BME280;3106;42.670;23.318;2023-01-25T08:04:22;95481.91;;;2.56;100.00
6150;BME280;3106;42.670;23.318;2023-01-25T08:06:53;95477.41;;;2.51;100.00
6150;BME280;3106;42.670;23.318;2023-01-25T08:09:22;95476.09;;;2.59;100.00
6150;BME280;3106;42.670;23.318;2023-01-25T08:11:52;95441.28;;;2.47;100.00
6150;BME280;3106;42.670;23.318;2023-01-25T08:14:19;95468.97;;;2.59;100.00
6150;BME280;3106;42.670;23.318;2023-01-25T08:16:46;95483.47;;;2.62;100.00
6150;BME280;3106;42.670;23.318;2023-01-25T08:19:13;95477.41;;;2.66;100.00
6150;BME280;3106;42.670;23.318;2023-01-25T08:21:40;95472.13;;;2.66;100.00
6150;BME280;3106;42.670;23.318;2023-01-25T08:24:09;95478.19;;;2.72;100.00
6150;BME280;3106;42.670;23.318;2023-01-25T08:26:36;95467.91;;;2.70;100.00
6150;BME280;3106;42.670;23.318;2023-01-25T08:29:03;95457.63;;;2.54;100.00
6150;BME280;3106;42.670;23.318;2023-01-25T08:31:32;95473.44;;;2.64;100.00
6150;BME280;3106;42.670;23.318;2023-01-25T08:34:00;95455.25;;;2.62;100.00
6150;BME280;3106;42.670;23.318;2023-01-25T08:36:27;95471.03;;;2.77;100.00
6150;BME280;3106;42.670;23.318;2023-01-25T08:38:55;95472.34;;;2.85;100.00
6150;BME280;3106;42.670;23.318;2023-01-25T08:41:25;95474.44;;;2.92;100.00
6150;BME280;3106;42.670;23.318;2023-01-25T08:43:53;95459.38;;;2.98;100.00
6150;BME280;3106;42.670;23.318;2023-01-25T08:46:21;95424.03;;;2.79;100.00
6150;BME280;3106;42.670;23.318;2023-01-25T08:48:52;95453.00;;;3.09;100.00
6150;BME280;3106;42.670;23.318;2023-01-25T08:51:19;95459.34;;;3.03;100.00
6150;BME280;3106;42.670;23.318;2023-01-25T08:53:47;95451.69;;;3.01;100.00
6150;BME280;3106;42.670;23.318;2023-01-25T08:56:15;95451.16;;;3.04;100.00
6150;BME280;3106;42.670;23.318;2023-01-25T08:58:45;95458.03;;;3.00;100.00
6150;BME280;3106;42.670;23.318;2023-01-25T09:01:14;95467.53;;;3.01;100.00
6150;BME280;3106;42.670;23.318;2023-01-25T09:03:48;95459.09;;;2.99;100.00
6150;BME280;3106;42.670;23.318;2023-01-25T09:06:17;95457.81;;;2.97;100.00
6150;BME280;3106;42.670;23.318;2023-01-25T09:08:45;95465.97;;;3.00;100.00
6150;BME280;3106;42.670;23.318;2023-01-25T09:11:19;95451.16;;;2.99;100.00
6150;BME280;3106;42.670;23.318;2023-01-25T09:13:50;95466.47;;;3.07;100.00
6150;BME280;3106;42.670;23.318;2023-01-25T09:16:19;95458.28;;;3.09;100.00
6150;BME280;3106;42.670;23.318;2023-01-25T09:18:57;95451.13;;;3.09;100.00
6150;BME280;3106;42.670;23.318;2023-01-25T09:21:25;95446.09;;;3.13;100.00
6150;BME280;3106;42.670;23.318;2023-01-25T09:23:52;95446.09;;;3.13;100.00
6150;BME280;3106;42.670;23.318;2023-01-25T09:26:21;95452.47;;;3.07;100.00
6150;BME280;3106;42.670;23.318;2023-01-25T09:28:51;95417.41;;;2.92;100.00
6150;BME280;3106;42.670;23.318;2023-01-25T09:31:18;95441.88;;;3.12;100.00
6150;BME280;3106;42.670;23.318;2023-01-25T09:33:46;95426.88;;;3.02;100.00
6150;BME280;3106;42.670;23.318;2023-01-25T09:36:13;95426.31;;;3.05;100.00
6150;BME280;3106;42.670;23.318;2023-01-25T09:38:40;95426.06;;;3.07;100.00
6150;BME280;3106;42.670;23.318;2023-01-25T09:41:19;95427.34;;;3.09;100.00
6150;BME280;3106;42.670;23.318;2023-01-25T09:43:59;95422.59;;;3.16;100.00
6150;BME280;3106;42.670;23.318;2023-01-25T09:46:39;95421.00;;;3.15;100.00
6150;BME280;3106;42.670;23.318;2023-01-25T09:49:25;95417.78;;;3.23;100.00
6150;BME280;3106;42.670;23.318;2023-01-25T09:52:07;95399.81;;;3.25;100.00
6150;BME280;3106;42.670;23.318;2023-01-25T09:54:39;95401.94;;;3.23;100.00
6150;BME280;3106;42.670;23.318;2023-01-25T09:57:26;95406.16;;;3.24;100.00
6150;BME280;3106;42.670;23.318;2023-01-25T10:00:03;95396.38;;;3.25;100.00
6150;BME280;3106;42.670;23.318;2023-01-25T10:02:40;95392.16;;;3.29;100.00
6150;BME280;3106;42.670;23.318;2023-01-25T10:05:18;95386.31;;;3.32;100.00
6150;BME280;3106;42.670;23.318;2023-01-25T10:07:54;95381.03;;;3.32;100.00
6150;BME280;3106;42.670;23.318;2023-01-25T10:10:29;95379.91;;;3.43;100.00
6150;BME280;3106;42.670;23.318;2023-01-25T10:12:58;95373.22;;;3.55;100.00
6150;BME280;3106;42.670;23.318;2023-01-25T10:15:31;95380.09;;;3.56;100.00
6150;BME280;3106;42.670;23.318;2023-01-25T10:18:06;95342.66;;;3.39;100.00
6150;BME280;3106;42.670;23.318;2023-01-25T10:20:42;95352.69;;;3.76;100.00
6150;BME280;3106;42.670;23.318;2023-01-25T10:23:35;95358.00;;;3.76;100.00
6150;BME280;3106;42.670;23.318;2023-01-25T10:26:10;95361.88;;;3.88;100.00
6150;BME280;3106;42.670;23.318;2023-01-25T10:28:43;95349.59;;;3.97;99.63
6150;BME280;3106;42.670;23.318;2023-01-25T10:31:18;95353.78;;;4.03;99.12
6150;BME280;3106;42.670;23.318;2023-01-25T10:33:47;95353.69;;;4.13;98.87
6150;BME280;3106;42.670;23.318;2023-01-25T10:36:16;95357.34;;;4.17;98.32
6150;BME280;3106;42.670;23.318;2023-01-25T10:38:45;95340.97;;;4.15;98.07
6150;BME280;3106;42.670;23.318;2023-01-25T10:41:18;95340.31;;;4.28;97.34
6150;BME280;3106;42.670;23.318;2023-01-25T10:43:46;95338.13;;;4.35;97.23
6150;BME280;3106;42.670;23.318;2023-01-25T10:46:35;95334.47;;;4.31;97.20
6150;BME280;3106;42.670;23.318;2023-01-25T10:49:17;95331.09;;;4.49;97.26
6150;BME280;3106;42.670;23.318;2023-01-25T10:51:48;95323.09;;;4.54;96.06
6150;BME280;3106;42.670;23.318;2023-01-25T10:54:17;95318.84;;;4.53;95.35
6150;BME280;3106;42.670;23.318;2023-01-25T10:56:45;95321.75;;;4.56;94.34
6150;BME280;3106;42.670;23.318;2023-01-25T10:59:20;95312.59;;;4.44;93.54
6150;BME280;3106;42.670;23.318;2023-01-25T11:01:49;95307.16;;;4.59;93.83
6150;BME280;3106;42.670;23.318;2023-01-25T11:04:28;95311.25;;;4.70;92.70
6150;BME280;3106;42.670;23.318;2023-01-25T11:06:57;95310.63;;;4.78;92.45
6150;BME280;3106;42.670;23.318;2023-01-25T11:09:33;95313.63;;;4.90;92.04
6150;BME280;3106;42.670;23.318;2023-01-25T11:12:02;95306.06;;;5.02;91.67
6150;BME280;3106;42.670;23.318;2023-01-25T11:14:30;95305.19;;;5.06;90.41
6150;BME280;3106;42.670;23.318;2023-01-25T11:17:00;95302.56;;;5.06;90.59
6150;BME280;3106;42.670;23.318;2023-01-25T11:19:33;95303.63;;;5.05;90.16
6150;BME280;3106;42.670;23.318;2023-01-25T11:22:02;95292.44;;;4.90;89.65
6150;BME280;3106;42.670;23.318;2023-01-25T11:24:31;95285.88;;;4.87;90.08
6150;BME280;3106;42.670;23.318;2023-01-25T11:27:16;95282.66;;;4.90;90.05
6150;BME280;3106;42.670;23.318;2023-01-25T11:29:45;95273.28;;;4.79;90.01
6150;BME280;3106;42.670;23.318;2023-01-25T11:32:18;95287.09;;;4.95;90.30
6150;BME280;3106;42.670;23.318;2023-01-25T11:34:49;95287.72;;;5.05;89.96
6150;BME280;3106;42.670;23.318;2023-01-25T11:37:29;95281.22;;;4.98;89.18
6150;BME280;3106;42.670;23.318;2023-01-25T11:40:10;95284.22;;;4.91;89.01
6150;BME280;3106;42.670;23.318;2023-01-25T11:42:46;95271.72;;;4.97;89.40
6150;BME280;3106;42.670;23.318;2023-01-25T11:45:52;95253.50;;;4.90;89.08
6150;BME280;3106;42.670;23.318;2023-01-25T11:48:52;95254.84;;;4.88;88.96
6150;BME280;3106;42.670;23.318;2023-01-25T11:51:26;95244.41;;;4.78;88.92
6150;BME280;3106;42.670;23.318;2023-01-25T11:54:15;95249.84;;;4.68;89.64
6150;BME280;3106;42.670;23.318;2023-01-25T11:56:56;95235.03;;;4.67;89.73
6150;BME280;3106;42.670;23.318;2023-01-25T11:59:44;95245.69;;;4.62;89.52
6150;BME280;3106;42.670;23.318;2023-01-25T12:02:36;95236.69;;;4.63;90.59
6150;BME280;3106;42.670;23.318;2023-01-25T12:05:23;95239.69;;;4.75;90.09
6150;BME280;3106;42.670;23.318;2023-01-25T12:08:06;95222.63;;;4.62;90.33
6150;BME280;3106;42.670;23.318;2023-01-25T12:10:40;95238.34;;;4.77;89.91
6150;BME280;3106;42.670;23.318;2023-01-25T12:13:18;95233.22;;;4.81;89.77
6150;BME280;3106;42.670;23.318;2023-01-25T12:16:05;95232.22;;;4.77;89.90
6150;BME280;3106;42.670;23.318;2023-01-25T12:18:48;95233.03;;;4.77;89.57
6150;BME280;3106;42.670;23.318;2023-01-25T12:21:32;95229.16;;;4.70;90.31
6150;BME280;3106;42.670;23.318;2023-01-25T12:24:18;95223.19;;;4.59;89.51
6150;BME280;3106;42.670;23.318;2023-01-25T12:26:54;95221.13;;;4.56;89.46
6150;BME280;3106;42.670;23.318;2023-01-25T12:29:28;95218.88;;;4.45;89.89
6150;BME280;3106;42.670;23.318;2023-01-25T12:31:59;95216.75;;;4.47;90.78
6150;BME280;3106;42.670;23.318;2023-01-25T12:34:32;95211.00;;;4.40;90.87
6150;BME280;3106;42.670;23.318;2023-01-25T12:37:07;95212.41;;;4.33;91.64
6150;BME280;3106;42.670;23.318;2023-01-25T12:39:41;95206.94;;;4.29;90.82
6150;BME280;3106;42.670;23.318;2023-01-25T12:42:14;95209.56;;;4.29;91.14
6150;BME280;3106;42.670;23.318;2023-01-25T12:44:46;95209.91;;;4.23;91.84
6150;BME280;3106;42.670;23.318;2023-01-25T12:47:19;95208.91;;;4.19;91.84
6150;BME280;3106;42.670;23.318;2023-01-25T12:49:50;95208.63;;;4.20;92.03
6150;BME280;3106;42.670;23.318;2023-01-25T12:52:26;95203.38;;;4.15;92.09
6150;BME280;3106;42.670;23.318;2023-01-25T12:54:56;95188.63;;;4.09;93.02
6150;BME280;3106;42.670;23.318;2023-01-25T12:57:28;95190.38;;;4.19;91.93
6150;BME280;3106;42.670;23.318;2023-01-25T13:00:05;95199.66;;;4.16;91.94
6150;BME280;3106;42.670;23.318;2023-01-25T13:02:49;95193.88;;;4.14;91.90
6150;BME280;3106;42.670;23.318;2023-01-25T13:05:26;95194.16;;;4.13;91.84
6150;BME280;3106;42.670;23.318;2023-01-25T13:08:02;95190.09;;;4.20;91.77
6150;BME280;3106;42.670;23.318;2023-01-25T13:10:34;95187.16;;;4.22;92.39
6150;BME280;3106;42.670;23.318;2023-01-25T13:13:21;95180.56;;;4.19;91.92
6150;BME280;3106;42.670;23.318;2023-01-25T13:15:50;95170.41;;;4.08;91.42
6150;BME280;3106;42.670;23.318;2023-01-25T13:18:37;95179.06;;;4.13;91.57
6150;BME280;3106;42.670;23.318;2023-01-25T13:21:09;95179.63;;;4.10;91.90
6150;BME280;3106;42.670;23.318;2023-01-25T13:23:39;95169.59;;;4.07;91.99
6150;BME280;3106;42.670;23.318;2023-01-25T13:26:36;95172.56;;;4.06;92.24
6150;BME280;3106;42.670;23.318;2023-01-25T13:29:03;95176.28;;;4.05;92.31
6150;BME280;3106;42.670;23.318;2023-01-25T13:31:50;95173.38;;;4.01;91.78
6150;BME280;3106;42.670;23.318;2023-01-25T13:37:27;95169.09;;;4.05;92.34
6150;BME280;3106;42.670;23.318;2023-01-25T13:39:57;95179.63;;;4.10;92.61
6150;BME280;3106;42.670;23.318;2023-01-25T13:42:25;95175.06;;;4.16;92.34
6150;BME280;3106;42.670;23.318;2023-01-25T13:44:55;95176.34;;;4.18;92.71
6150;BME280;3106;42.670;23.318;2023-01-25T13:47:24;95193.25;;;4.22;91.95
6150;BME280;3106;42.670;23.318;2023-01-25T13:49:56;95191.69;;;4.21;91.68
6150;BME280;3106;42.670;23.318;2023-01-25T13:52:24;95190.28;;;4.05;91.47
6150;BME280;3106;42.670;23.318;2023-01-25T13:54:54;95177.38;;;3.99;91.93